Abilene Regional Airport Abilene US
ICAO: KABI
IATA: ABI
Category: Medium
Scheduled Services: Yes

Elevation: 1791 ft
TransAlt. 18000 ft.

Airport Communications:
APP/DEP:125
ATIS:118.25
GND:121.7
FORT WORTH RDO:122.65
TWR:120.1
UNICOM:122.95

KABI Zoom In..

Runways:

(A) RW 04 length 3679 ft width 100 ft
LOC 109.75 / hdg 44

(B) RW 17L length 7198 ft width 150 ft
LOC 109.75 / hdg 172

(C) RW 17R length 7203 ft width 150 ft
LOC 109.75 / hdg 172

(D) RW 22 length 3679 ft width 100 ft
LOC 109.75 / hdg 224

(E) RW 35L length 7203 ft width 150 ft
LOC 109.75 / hdg 352

(F) RW 35R length 7198 ft width 150 ft
ILS 110.30 / hdg 352

Location; KABI
Day. 10 / Time. 07.52 Zulu
* Altimeter: 30.08
* Temperature: 12° c. 53.6°f.
* Wind from: 360° Speed 05 kn.
Dewpoint: 12° c.
Visibility: 10 Statute Miles.
Clouds: Clear (automated report).

KABI 100752Z 36005KT 10SM CLR 12/12 A3008 RMK AO2 SLP171 T01220122 $


Wind From 360°
Speed 05 kn.

 
 
jpsmedia worldairports.se 2020   terms of use